sensor_id;sensor_type;location;lat;lon;timestamp;pressure;altitude;pressure_sealevel;temperature;humidity
49216;BME280;45943;53.148;8.204;2023-02-26T00:01:16;101877.34;;;5.59;61.20
49216;BME280;45943;53.148;8.204;2023-02-26T00:03:47;101885.16;;;5.64;60.75
49216;BME280;45943;53.148;8.204;2023-02-26T00:06:14;101889.59;;;5.63;62.11
49216;BME280;45943;53.148;8.204;2023-02-26T00:08:40;101892.38;;;5.60;61.28
49216;BME280;45943;53.148;8.204;2023-02-26T00:11:06;101891.72;;;5.55;62.10
49216;BME280;45943;53.148;8.204;2023-02-26T00:13:34;101888.84;;;5.60;62.19
49216;BME280;45943;53.148;8.204;2023-02-26T00:16:02;101896.50;;;5.67;61.08
49216;BME280;45943;53.148;8.204;2023-02-26T00:18:35;101900.91;;;5.68;61.02
49216;BME280;45943;53.148;8.204;2023-02-26T00:21:01;101898.59;;;5.61;61.70
49216;BME280;45943;53.148;8.204;2023-02-26T00:23:27;101903.38;;;5.53;62.34
49216;BME280;45943;53.148;8.204;2023-02-26T00:25:53;101908.88;;;5.48;62.37
49216;BME280;45943;53.148;8.204;2023-02-26T00:28:19;101909.81;;;5.47;61.61
49216;BME280;45943;53.148;8.204;2023-02-26T00:30:45;101920.72;;;5.41;62.26
49216;BME280;45943;53.148;8.204;2023-02-26T00:33:11;101921.47;;;5.44;62.01
49216;BME280;45943;53.148;8.204;2023-02-26T00:35:38;101919.91;;;5.39;62.21
49216;BME280;45943;53.148;8.204;2023-02-26T00:38:13;101928.44;;;5.47;62.01
49216;BME280;45943;53.148;8.204;2023-02-26T00:43:18;101928.44;;;5.47;62.61
49216;BME280;45943;53.148;8.204;2023-02-26T00:54:06;101939.69;;;5.54;61.51
49216;BME280;45943;53.148;8.204;2023-02-26T00:56:41;101945.34;;;5.46;62.43
49216;BME280;45943;53.148;8.204;2023-02-26T00:59:07;101950.00;;;5.41;62.64
49216;BME280;45943;53.148;8.204;2023-02-26T01:01:33;101946.78;;;5.33;62.44
49216;BME280;45943;53.148;8.204;2023-02-26T01:03:59;101943.91;;;5.37;62.97
49216;BME280;45943;53.148;8.204;2023-02-26T01:06:29;101942.06;;;5.39;63.55
49216;BME280;45943;53.148;8.204;2023-02-26T01:09:04;101943.34;;;5.29;63.65
49216;BME280;45943;53.148;8.204;2023-02-26T01:11:55;101950.69;;;5.24;65.19
49216;BME280;45943;53.148;8.204;2023-02-26T01:14:26;101946.34;;;5.22;64.69
49216;BME280;45943;53.148;8.204;2023-02-26T01:19:32;101946.22;;;5.25;66.73
49216;BME280;45943;53.148;8.204;2023-02-26T01:22:18;101954.00;;;5.29;66.01
49216;BME280;45943;53.148;8.204;2023-02-26T01:25:12;101943.44;;;5.28;66.33
49216;BME280;45943;53.148;8.204;2023-02-26T01:27:40;101947.88;;;5.27;67.62
49216;BME280;45943;53.148;8.204;2023-02-26T01:30:07;101949.38;;;5.12;67.01
49216;BME280;45943;53.148;8.204;2023-02-26T01:43:48;101969.81;;;5.10;70.13
49216;BME280;45943;53.148;8.204;2023-02-26T01:46:31;101965.22;;;5.15;71.55
49216;BME280;45943;53.148;8.204;2023-02-26T01:49:17;101981.84;;;5.21;70.47
49216;BME280;45943;53.148;8.204;2023-02-26T01:51:48;101973.75;;;5.24;71.37
49216;BME280;45943;53.148;8.204;2023-02-26T01:54:20;101981.81;;;5.22;71.67
49216;BME280;45943;53.148;8.204;2023-02-26T01:56:53;101981.91;;;5.19;72.27
49216;BME280;45943;53.148;8.204;2023-02-26T01:59:22;101994.47;;;5.15;73.19
49216;BME280;45943;53.148;8.204;2023-02-26T02:01:52;101985.50;;;5.18;72.72
49216;BME280;45943;53.148;8.204;2023-02-26T02:04:20;101999.59;;;5.20;72.41
49216;BME280;45943;53.148;8.204;2023-02-26T02:06:47;102004.97;;;5.18;72.17
49216;BME280;45943;53.148;8.204;2023-02-26T02:09:13;102004.31;;;5.13;72.95
49216;BME280;45943;53.148;8.204;2023-02-26T02:11:43;102007.03;;;5.12;73.38
49216;BME280;45943;53.148;8.204;2023-02-26T02:17:20;102014.72;;;4.96;75.26
49216;BME280;45943;53.148;8.204;2023-02-26T02:23:06;102021.09;;;4.92;76.51
49216;BME280;45943;53.148;8.204;2023-02-26T02:31:26;102041.88;;;4.81;77.92
49216;BME280;45943;53.148;8.204;2023-02-26T02:36:47;102039.22;;;4.81;78.00
49216;BME280;45943;53.148;8.204;2023-02-26T02:41:56;102044.66;;;4.78;79.72
49216;BME280;45943;53.148;8.204;2023-02-26T02:44:29;102048.44;;;4.72;80.85
49216;BME280;45943;53.148;8.204;2023-02-26T02:46:59;102054.59;;;4.73;81.25
49216;BME280;45943;53.148;8.204;2023-02-26T02:49:30;102059.94;;;4.71;82.59
49216;BME280;45943;53.148;8.204;2023-02-26T02:57:08;102069.44;;;4.78;81.82
49216;BME280;45943;53.148;8.204;2023-02-26T02:59:41;102077.47;;;4.77;83.05
49216;BME280;45943;53.148;8.204;2023-02-26T03:02:11;102080.31;;;4.72;83.66
49216;BME280;45943;53.148;8.204;2023-02-26T03:04:58;102074.06;;;4.73;83.35
49216;BME280;45943;53.148;8.204;2023-02-26T03:07:24;102081.13;;;4.74;83.11
49216;BME280;45943;53.148;8.204;2023-02-26T03:09:50;102085.66;;;4.71;84.48
49216;BME280;45943;53.148;8.204;2023-02-26T03:12:16;102088.50;;;4.66;86.36
49216;BME280;45943;53.148;8.204;2023-02-26T03:14:42;102089.16;;;4.73;84.59
49216;BME280;45943;53.148;8.204;2023-02-26T03:31:08;102099.13;;;4.66;86.62
49216;BME280;45943;53.148;8.204;2023-02-26T03:34:02;102107.91;;;4.68;87.68
49216;BME280;45943;53.148;8.204;2023-02-26T03:36:39;102107.84;;;4.70;88.34
49216;BME280;45943;53.148;8.204;2023-02-26T03:39:13;102106.34;;;4.63;88.27
49216;BME280;45943;53.148;8.204;2023-02-26T03:44:48;102116.94;;;4.64;88.67
49216;BME280;45943;53.148;8.204;2023-02-26T03:47:37;102125.53;;;4.71;87.33
49216;BME280;45943;53.148;8.204;2023-02-26T03:50:15;102134.50;;;4.68;88.35
49216;BME280;45943;53.148;8.204;2023-02-26T03:52:47;102136.47;;;4.63;89.26
49216;BME280;45943;53.148;8.204;2023-02-26T03:55:17;102136.53;;;4.60;87.96
49216;BME280;45943;53.148;8.204;2023-02-26T03:57:46;102141.91;;;4.58;90.36
49216;BME280;45943;53.148;8.204;2023-02-26T04:00:14;102147.41;;;4.54;90.97
49216;BME280;45943;53.148;8.204;2023-02-26T04:02:54;102153.66;;;4.53;92.82
49216;BME280;45943;53.148;8.204;2023-02-26T04:05:26;102157.16;;;4.53;91.82
49216;BME280;45943;53.148;8.204;2023-02-26T04:07:56;102159.78;;;4.55;92.67
49216;BME280;45943;53.148;8.204;2023-02-26T04:10:32;102172.00;;;4.59;92.81
49216;BME280;45943;53.148;8.204;2023-02-26T04:13:02;102171.31;;;4.54;91.92
49216;BME280;45943;53.148;8.204;2023-02-26T04:15:28;102173.19;;;4.50;93.77
49216;BME280;45943;53.148;8.204;2023-02-26T04:17:54;102176.69;;;4.52;94.58
49216;BME280;45943;53.148;8.204;2023-02-26T04:20:20;102185.66;;;4.48;94.12
49216;BME280;45943;53.148;8.204;2023-02-26T04:22:46;102182.16;;;4.48;95.76
49216;BME280;45943;53.148;8.204;2023-02-26T04:25:12;102185.59;;;4.50;95.75
49216;BME280;45943;53.148;8.204;2023-02-26T04:27:38;102188.06;;;4.56;96.38
49216;BME280;45943;53.148;8.204;2023-02-26T04:30:04;102190.66;;;4.57;96.48
49216;BME280;45943;53.148;8.204;2023-02-26T04:32:31;102187.97;;;4.59;97.90
49216;BME280;45943;53.148;8.204;2023-02-26T04:34:57;102196.91;;;4.56;98.36
49216;BME280;45943;53.148;8.204;2023-02-26T04:37:23;102193.28;;;4.59;98.19
49216;BME280;45943;53.148;8.204;2023-02-26T04:39:49;102202.16;;;4.58;99.53
49216;BME280;45943;53.148;8.204;2023-02-26T04:42:15;102198.81;;;4.53;100.00
49216;BME280;45943;53.148;8.204;2023-02-26T04:44:41;102206.63;;;4.57;99.97
49216;BME280;45943;53.148;8.204;2023-02-26T04:47:07;102208.72;;;4.48;100.00
49216;BME280;45943;53.148;8.204;2023-02-26T04:49:33;102216.84;;;4.43;100.00
49216;BME280;45943;53.148;8.204;2023-02-26T04:51:59;102216.88;;;4.42;100.00
49216;BME280;45943;53.148;8.204;2023-02-26T04:54:25;102222.19;;;4.42;100.00
49216;BME280;45943;53.148;8.204;2023-02-26T04:56:51;102223.22;;;4.38;100.00
49216;BME280;45943;53.148;8.204;2023-02-26T04:59:17;102227.66;;;4.37;100.00
49216;BME280;45943;53.148;8.204;2023-02-26T05:01:43;102227.59;;;4.39;100.00
49216;BME280;45943;53.148;8.204;2023-02-26T05:04:09;102242.56;;;4.41;100.00
49216;BME280;45943;53.148;8.204;2023-02-26T05:06:35;102241.81;;;4.38;100.00
49216;BME280;45943;53.148;8.204;2023-02-26T05:09:01;102242.78;;;4.35;100.00
49216;BME280;45943;53.148;8.204;2023-02-26T05:11:27;102244.72;;;4.30;100.00
49216;BME280;45943;53.148;8.204;2023-02-26T05:13:53;102244.72;;;4.30;100.00
49216;BME280;45943;53.148;8.204;2023-02-26T05:16:19;102245.50;;;4.34;100.00
49216;BME280;45943;53.148;8.204;2023-02-26T05:18:45;102261.50;;;4.30;100.00
49216;BME280;45943;53.148;8.204;2023-02-26T05:21:11;102267.84;;;4.26;100.00
49216;BME280;45943;53.148;8.204;2023-02-26T05:23:37;102266.13;;;4.25;100.00
49216;BME280;45943;53.148;8.204;2023-02-26T05:26:03;102270.63;;;4.22;100.00
49216;BME280;45943;53.148;8.204;2023-02-26T05:28:29;102283.78;;;4.26;100.00
49216;BME280;45943;53.148;8.204;2023-02-26T05:30:56;102273.97;;;4.28;100.00
49216;BME280;45943;53.148;8.204;2023-02-26T05:33:22;102268.56;;;4.31;100.00
49216;BME280;45943;53.148;8.204;2023-02-26T05:35:48;102268.47;;;4.35;100.00
49216;BME280;45943;53.148;8.204;2023-02-26T05:38:15;102270.41;;;4.29;100.00
49216;BME280;45943;53.148;8.204;2023-02-26T05:40:41;102272.31;;;4.26;100.00
49216;BME280;45943;53.148;8.204;2023-02-26T05:43:07;102281.91;;;4.30;100.00
49216;BME280;45943;53.148;8.204;2023-02-26T05:45:33;102284.59;;;4.28;100.00
49216;BME280;45943;53.148;8.204;2023-02-26T05:47:59;102280.78;;;4.37;100.00
49216;BME280;45943;53.148;8.204;2023-02-26T05:50:25;102294.06;;;4.37;100.00
49216;BME280;45943;53.148;8.204;2023-02-26T05:52:52;102287.03;;;4.36;100.00
49216;BME280;45943;53.148;8.204;2023-02-26T05:55:18;102298.56;;;4.35;100.00
49216;BME280;45943;53.148;8.204;2023-02-26T05:57:44;102307.66;;;4.28;100.00
49216;BME280;45943;53.148;8.204;2023-02-26T06:00:10;102313.00;;;4.26;100.00
49216;BME280;45943;53.148;8.204;2023-02-26T06:02:37;102312.84;;;4.31;100.00
49216;BME280;45943;53.148;8.204;2023-02-26T06:05:04;102316.38;;;4.31;100.00
49216;BME280;45943;53.148;8.204;2023-02-26T06:07:30;102325.22;;;4.32;100.00
49216;BME280;45943;53.148;8.204;2023-02-26T06:09:56;102326.25;;;4.28;100.00
49216;BME280;45943;53.148;8.204;2023-02-26T06:12:22;102330.63;;;4.29;100.00
49216;BME280;45943;53.148;8.204;2023-02-26T06:14:48;102327.16;;;4.27;100.00
49216;BME280;45943;53.148;8.204;2023-02-26T06:17:14;102339.41;;;4.31;100.00
49216;BME280;45943;53.148;8.204;2023-02-26T06:19:40;102339.28;;;4.36;100.00
49216;BME280;45943;53.148;8.204;2023-02-26T06:22:06;102339.41;;;4.31;100.00
49216;BME280;45943;53.148;8.204;2023-02-26T06:24:32;102344.78;;;4.29;100.00
49216;BME280;45943;53.148;8.204;2023-02-26T06:26:58;102344.78;;;4.29;100.00
49216;BME280;45943;53.148;8.204;2023-02-26T06:29:24;102343.81;;;4.32;100.00
49216;BME280;45943;53.148;8.204;2023-02-26T06:31:50;102357.13;;;4.30;100.00
49216;BME280;45943;53.148;8.204;2023-02-26T06:34:16;102356.22;;;4.31;100.00
49216;BME280;45943;53.148;8.204;2023-02-26T06:36:42;102351.69;;;4.35;100.00
49216;BME280;45943;53.148;8.204;2023-02-26T06:39:08;102357.88;;;4.36;100.00
49216;BME280;45943;53.148;8.204;2023-02-26T06:41:34;102355.19;;;4.37;100.00
49216;BME280;45943;53.148;8.204;2023-02-26T06:44:00;102356.22;;;4.31;100.00
49216;BME280;45943;53.148;8.204;2023-02-26T06:46:26;102367.88;;;4.27;100.00
49216;BME280;45943;53.148;8.204;2023-02-26T06:48:52;102364.16;;;4.33;100.00
49216;BME280;45943;53.148;8.204;2023-02-26T06:51:18;102359.66;;;4.35;99.31
49216;BME280;45943;53.148;8.204;2023-02-26T06:53:44;102363.25;;;4.34;100.00
49216;BME280;45943;53.148;8.204;2023-02-26T06:56:10;102373.00;;;4.34;100.00
49216;BME280;45943;53.148;8.204;2023-02-26T06:58:36;102371.22;;;4.32;100.00
49216;BME280;45943;53.148;8.204;2023-02-26T07:01:03;102380.06;;;4.35;99.89
49216;BME280;45943;53.148;8.204;2023-02-26T07:03:29;102380.59;;;4.46;98.87
49216;BME280;45943;53.148;8.204;2023-02-26T07:05:55;102388.34;;;4.53;96.42
49216;BME280;45943;53.148;8.204;2023-02-26T07:08:21;102391.81;;;4.55;96.56
49216;BME280;45943;53.148;8.204;2023-02-26T07:10:48;102397.84;;;4.60;96.21
49216;BME280;45943;53.148;8.204;2023-02-26T07:13:16;102401.34;;;4.63;94.74
49216;BME280;45943;53.148;8.204;2023-02-26T07:15:42;102401.38;;;4.61;95.13
49216;BME280;45943;53.148;8.204;2023-02-26T07:18:08;102412.06;;;4.59;94.84
49216;BME280;45943;53.148;8.204;2023-02-26T07:20:34;102404.81;;;4.65;92.65
49216;BME280;45943;53.148;8.204;2023-02-26T07:23:00;102407.25;;;4.72;91.27
49216;BME280;45943;53.148;8.204;2023-02-26T07:25:27;102412.53;;;4.74;90.08
49216;BME280;45943;53.148;8.204;2023-02-26T07:27:53;102410.78;;;4.73;91.08
49216;BME280;45943;53.148;8.204;2023-02-26T07:30:19;102416.91;;;4.75;90.16
49216;BME280;45943;53.148;8.204;2023-02-26T07:32:45;102424.84;;;4.76;90.19
49216;BME280;45943;53.148;8.204;2023-02-26T07:35:11;102429.19;;;4.79;90.45
49216;BME280;45943;53.148;8.204;2023-02-26T07:37:37;102436.16;;;4.83;90.43
49216;BME280;45943;53.148;8.204;2023-02-26T07:40:03;102441.25;;;4.89;91.86
49216;BME280;45943;53.148;8.204;2023-02-26T07:42:29;102447.28;;;4.96;90.67
49216;BME280;45943;53.148;8.204;2023-02-26T07:44:56;102445.31;;;5.02;89.39
49216;BME280;45943;53.148;8.204;2023-02-26T07:47:22;102450.34;;;5.10;88.75
49216;BME280;45943;53.148;8.204;2023-02-26T07:49:48;102450.13;;;5.17;87.68
49216;BME280;45943;53.148;8.204;2023-02-26T07:52:14;102452.59;;;5.24;86.79
49216;BME280;45943;53.148;8.204;2023-02-26T07:54:40;102456.00;;;5.27;87.15
49216;BME280;45943;53.148;8.204;2023-02-26T07:57:06;102449.56;;;5.34;85.10
49216;BME280;45943;53.148;8.204;2023-02-26T07:59:32;102451.13;;;5.40;84.91
49216;BME280;45943;53.148;8.204;2023-02-26T08:01:58;102452.56;;;5.50;83.95
49216;BME280;45943;53.148;8.204;2023-02-26T08:04:24;102448.69;;;5.60;82.84
49216;BME280;45943;53.148;8.204;2023-02-26T08:06:50;102457.19;;;5.71;81.65
49216;BME280;45943;53.148;8.204;2023-02-26T08:09:16;102464.94;;;5.78;80.48
49216;BME280;45943;53.148;8.204;2023-02-26T08:11:42;102459.13;;;5.66;79.87
49216;BME280;45943;53.148;8.204;2023-02-26T08:14:08;102457.19;;;5.71;79.07
49216;BME280;45943;53.148;8.204;2023-02-26T08:16:36;102469.22;;;5.83;79.45
49216;BME280;45943;53.148;8.204;2023-02-26T08:19:02;102476.09;;;5.90;79.63
49216;BME280;45943;53.148;8.204;2023-02-26T08:21:28;102475.88;;;5.96;79.39
49216;BME280;45943;53.148;8.204;2023-02-26T08:23:54;102470.75;;;6.15;79.01
49216;BME280;45943;53.148;8.204;2023-02-26T08:26:19;102468.91;;;6.17;77.95
49216;BME280;45943;53.148;8.204;2023-02-26T08:28:45;102482.63;;;6.31;78.36
49216;BME280;45943;53.148;8.204;2023-02-26T08:31:13;102477.97;;;6.37;77.92
49216;BME280;45943;53.148;8.204;2023-02-26T08:33:39;102480.09;;;6.52;80.06
49216;BME280;45943;53.148;8.204;2023-02-26T08:36:05;102489.16;;;7.38;100.00
49216;BME280;45943;53.148;8.204;2023-02-26T08:38:32;102487.41;;;7.80;100.00
49216;BME280;45943;53.148;8.204;2023-02-26T08:40:58;102500.47;;;7.86;100.00
49216;BME280;45943;53.148;8.204;2023-02-26T08:43:25;102495.09;;;7.87;94.81
49216;BME280;45943;53.148;8.204;2023-02-26T08:45:51;102498.75;;;7.85;99.56
49216;BME280;45943;53.148;8.204;2023-02-26T08:48:19;102499.84;;;8.01;94.22
49216;BME280;45943;53.148;8.204;2023-02-26T08:50:45;102505.03;;;8.24;87.10
49216;BME280;45943;53.148;8.204;2023-02-26T08:53:12;102505.97;;;8.23;78.34
49216;BME280;45943;53.148;8.204;2023-02-26T08:55:38;102511.94;;;8.30;80.91
49216;BME280;45943;53.148;8.204;2023-02-26T08:58:04;102517.13;;;8.33;77.40
49216;BME280;45943;53.148;8.204;2023-02-26T09:00:32;102515.25;;;8.37;72.94
49216;BME280;45943;53.148;8.204;2023-02-26T09:02:58;102523.72;;;8.26;70.03
49216;BME280;45943;53.148;8.204;2023-02-26T09:05:24;102522.63;;;8.30;76.35
49216;BME280;45943;53.148;8.204;2023-02-26T09:07:50;102532.72;;;8.44;70.01
49216;BME280;45943;53.148;8.204;2023-02-26T09:10:16;102539.78;;;8.46;74.78
49216;BME280;45943;53.148;8.204;2023-02-26T09:12:43;102538.91;;;8.46;71.63
49216;BME280;45943;53.148;8.204;2023-02-26T09:15:09;102539.66;;;8.68;73.95
49216;BME280;45943;53.148;8.204;2023-02-26T09:17:36;102548.41;;;8.72;71.46
49216;BME280;45943;53.148;8.204;2023-02-26T09:20:02;102548.91;;;8.41;64.93
49216;BME280;45943;53.148;8.204;2023-02-26T09:22:29;102556.66;;;8.26;63.78
49216;BME280;45943;53.148;8.204;2023-02-26T09:24:55;102557.81;;;8.41;66.65
49216;BME280;45943;53.148;8.204;2023-02-26T09:27:21;102557.97;;;8.38;61.99
49216;BME280;45943;53.148;8.204;2023-02-26T09:29:48;102550.00;;;8.37;60.04
49216;BME280;45943;53.148;8.204;2023-02-26T09:32:14;102557.16;;;8.36;60.21
49216;BME280;45943;53.148;8.204;2023-02-26T09:34:39;102566.44;;;8.48;62.78
49216;BME280;45943;53.148;8.204;2023-02-26T09:37:06;102566.88;;;8.78;60.30
49216;BME280;45943;53.148;8.204;2023-02-26T09:39:34;102568.38;;;8.83;56.62
49216;BME280;45943;53.148;8.204;2023-02-26T09:42:10;102564.31;;;8.95;58.71
49216;BME280;45943;53.148;8.204;2023-02-26T09:44:54;102576.16;;;9.08;54.63
49216;BME280;45943;53.148;8.204;2023-02-26T09:47:39;102584.63;;;8.99;56.17
49216;BME280;45943;53.148;8.204;2023-02-26T09:53:18;102596.31;;;8.57;51.69
49216;BME280;45943;53.148;8.204;2023-02-26T09:55:47;102585.16;;;8.68;54.61
49216;BME280;45943;53.148;8.204;2023-02-26T10:06:41;102609.22;;;8.68;51.49
49216;BME280;45943;53.148;8.204;2023-02-26T10:09:39;102614.91;;;8.60;50.82
49216;BME280;45943;53.148;8.204;2023-02-26T10:12:26;102609.00;;;8.73;51.11
49216;BME280;45943;53.148;8.204;2023-02-26T10:15:38;102616.97;;;8.74;51.88
49216;BME280;45943;53.148;8.204;2023-02-26T10:20:54;102619.75;;;8.91;50.56
49216;BME280;45943;53.148;8.204;2023-02-26T10:29:02;102627.19;;;9.05;50.75
49216;BME280;45943;53.148;8.204;2023-02-26T10:34:29;102628.13;;;8.84;50.40
49216;BME280;45943;53.148;8.204;2023-02-26T10:39:32;102645.09;;;9.03;50.34
49216;BME280;45943;53.148;8.204;2023-02-26T10:51:25;102646.88;;;9.42;50.48
49216;BME280;45943;53.148;8.204;2023-02-26T10:53:59;102653.19;;;9.41;51.44
49216;BME280;45943;53.148;8.204;2023-02-26T10:56:32;102647.03;;;9.58;51.74
49216;BME280;45943;53.148;8.204;2023-02-26T10:59:03;102660.78;;;9.69;51.20
49216;BME280;45943;53.148;8.204;2023-02-26T11:01:30;102659.41;;;9.41;51.23
49216;BME280;45943;53.148;8.204;2023-02-26T11:04:00;102651.97;;;9.48;52.36
49216;BME280;45943;53.148;8.204;2023-02-26T11:06:31;102658.78;;;9.74;51.72
49216;BME280;45943;53.148;8.204;2023-02-26T11:08:59;102653.84;;;9.65;49.70
49216;BME280;45943;53.148;8.204;2023-02-26T11:11:40;102658.03;;;9.52;49.30
49216;BME280;45943;53.148;8.204;2023-02-26T11:14:10;102662.53;;;9.70;50.21
49216;BME280;45943;53.148;8.204;2023-02-26T11:16:51;102658.53;;;9.60;49.81
49216;BME280;45943;53.148;8.204;2023-02-26T11:19:25;102655.75;;;9.24;51.00
49216;BME280;45943;53.148;8.204;2023-02-26T11:21:53;102661.84;;;9.08;51.47
49216;BME280;45943;53.148;8.204;2023-02-26T11:24:33;102657.78;;;9.18;52.11
49216;BME280;45943;53.148;8.204;2023-02-26T11:27:03;102656.50;;;9.27;51.90
49216;BME280;45943;53.148;8.204;2023-02-26T11:29:34;102654.31;;;9.16;51.26
49216;BME280;45943;53.148;8.204;2023-02-26T11:32:03;102663.97;;;9.00;51.47
49216;BME280;45943;53.148;8.204;2023-02-26T11:34:30;102667.59;;;8.99;52.61
49216;BME280;45943;53.148;8.204;2023-02-26T11:36:57;102657.88;;;9.17;52.14
49216;BME280;45943;53.148;8.204;2023-02-26T11:39:27;102657.03;;;9.35;51.30
49216;BME280;45943;53.148;8.204;2023-02-26T11:41:57;102661.66;;;9.51;51.59
49216;BME280;45943;53.148;8.204;2023-02-26T11:49:45;102655.56;;;9.85;50.23
49216;BME280;45943;53.148;8.204;2023-02-26T11:52:20;102652.84;;;10.40;49.86
49216;BME280;45943;53.148;8.204;2023-02-26T11:54:53;102643.84;;;10.75;49.17
49216;BME280;45943;53.148;8.204;2023-02-26T11:57:41;102644.22;;;11.18;48.67
49216;BME280;45943;53.148;8.204;2023-02-26T12:00:18;102642.16;;;10.90;47.78
49216;BME280;45943;53.148;8.204;2023-02-26T12:02:48;102637.38;;;10.79;47.02
49216;BME280;45943;53.148;8.204;2023-02-26T12:05:15;102637.59;;;10.92;46.94
49216;BME280;45943;53.148;8.204;2023-02-26T12:07:42;102631.84;;;10.82;45.83
49216;BME280;45943;53.148;8.204;2023-02-26T12:10:20;102630.16;;;10.97;45.97
49216;BME280;45943;53.148;8.204;2023-02-26T12:12:53;102620.25;;;11.15;45.70
49216;BME280;45943;53.148;8.204;2023-02-26T12:15:32;102631.84;;;11.15;45.63
49216;BME280;45943;53.148;8.204;2023-02-26T12:18:20;102631.78;;;11.48;45.84
49216;BME280;45943;53.148;8.204;2023-02-26T12:43:04;102630.44;;;11.89;44.57
49216;BME280;45943;53.148;8.204;2023-02-26T12:45:44;102627.03;;;11.38;45.04
49216;BME280;45943;53.148;8.204;2023-02-26T12:49:07;102630.66;;;11.37;46.32
49216;BME280;45943;53.148;8.204;2023-02-26T12:54:39;102635.91;;;11.87;45.18
49216;BME280;45943;53.148;8.204;2023-02-26T12:57:25;102639.72;;;12.29;44.98
49216;BME280;45943;53.148;8.204;2023-02-26T13:17:56;102629.91;;;11.66;45.91
49216;BME280;45943;53.148;8.204;2023-02-26T13:20:28;102633.13;;;11.41;45.71
49216;BME280;45943;53.148;8.204;2023-02-26T13:23:00;102641.84;;;10.96;46.34
49216;BME280;45943;53.148;8.204;2023-02-26T13:31:14;102631.84;;;11.80;48.06
49216;BME280;45943;53.148;8.204;2023-02-26T13:33:43;102634.22;;;12.16;45.80
49216;BME280;45943;53.148;8.204;2023-02-26T13:36:10;102632.94;;;12.38;45.25
49216;BME280;45943;53.148;8.204;2023-02-26T13:43:40;102621.22;;;12.39;43.88
49216;BME280;45943;53.148;8.204;2023-02-26T13:51:34;102625.06;;;11.73;44.93
49216;BME280;45943;53.148;8.204;2023-02-26T13:54:07;102622.38;;;11.89;44.44
49216;BME280;45943;53.148;8.204;2023-02-26T14:06:45;102631.03;;;11.31;45.42
49216;BME280;45943;53.148;8.204;2023-02-26T14:16:54;102630.63;;;12.01;45.51
49216;BME280;45943;53.148;8.204;2023-02-26T14:19:44;102620.84;;;12.30;44.64
49216;BME280;45943;53.148;8.204;2023-02-26T14:22:34;102625.28;;;12.46;44.22
49216;BME280;45943;53.148;8.204;2023-02-26T14:25:28;102628.31;;;12.25;43.80
49216;BME280;45943;53.148;8.204;2023-02-26T14:30:58;102631.44;;;12.18;44.70
49216;BME280;45943;53.148;8.204;2023-02-26T14:33:39;102631.19;;;12.06;44.64
49216;BME280;45943;53.148;8.204;2023-02-26T14:36:16;102631.22;;;11.75;45.99
49216;BME280;45943;53.148;8.204;2023-02-26T14:38:50;102629.13;;;11.64;45.71
49216;BME280;45943;53.148;8.204;2023-02-26T14:43:58;102630.25;;;11.76;46.88
49216;BME280;45943;53.148;8.204;2023-02-26T14:46:27;102639.69;;;11.67;47.37
49216;BME280;45943;53.148;8.204;2023-02-26T14:48:54;102641.22;;;11.40;47.54
49216;BME280;45943;53.148;8.204;2023-02-26T14:57:09;102638.13;;;11.32;49.11
49216;BME280;45943;53.148;8.204;2023-02-26T15:02:29;102638.34;;;11.60;48.64
49216;BME280;45943;53.148;8.204;2023-02-26T15:07:55;102639.97;;;11.63;48.92
49216;BME280;45943;53.148;8.204;2023-02-26T15:18:49;102645.84;;;11.69;49.44
49216;BME280;45943;53.148;8.204;2023-02-26T15:24:08;102651.84;;;11.59;50.75
49216;BME280;45943;53.148;8.204;2023-02-26T15:26:39;102651.59;;;11.63;50.59
49216;BME280;45943;53.148;8.204;2023-02-26T15:29:11;102650.47;;;11.52;50.47
49216;BME280;45943;53.148;8.204;2023-02-26T15:31:40;102643.19;;;11.54;48.81
49216;BME280;45943;53.148;8.204;2023-02-26T15:34:09;102652.44;;;11.48;49.04
49216;BME280;45943;53.148;8.204;2023-02-26T15:36:38;102654.09;;;11.51;47.82
49216;BME280;45943;53.148;8.204;2023-02-26T15:39:07;102653.91;;;11.69;47.79
49216;BME280;45943;53.148;8.204;2023-02-26T15:41:34;102653.84;;;11.71;47.29
49216;BME280;45943;53.148;8.204;2023-02-26T15:44:01;102661.72;;;11.58;47.43
49216;BME280;45943;53.148;8.204;2023-02-26T15:46:35;102660.03;;;11.40;47.23
49216;BME280;45943;53.148;8.204;2023-02-26T15:49:06;102662.91;;;11.21;47.43
49216;BME280;45943;53.148;8.204;2023-02-26T15:51:36;102667.25;;;11.06;48.06
49216;BME280;45943;53.148;8.204;2023-02-26T15:54:03;102659.50;;;11.00;50.40
49216;BME280;45943;53.148;8.204;2023-02-26T15:56:30;102663.59;;;10.91;48.71
49216;BME280;45943;53.148;8.204;2023-02-26T15:59:02;102665.88;;;10.82;49.37
49216;BME280;45943;53.148;8.204;2023-02-26T16:01:32;102664.47;;;10.75;48.76
49216;BME280;45943;53.148;8.204;2023-02-26T16:04:06;102659.41;;;10.69;49.21
49216;BME280;45943;53.148;8.204;2023-02-26T16:06:38;102670.47;;;10.62;49.27
49216;BME280;45943;53.148;8.204;2023-02-26T16:09:07;102671.81;;;10.54;53.34
49216;BME280;45943;53.148;8.204;2023-02-26T16:11:40;102673.75;;;10.50;50.89
49216;BME280;45943;53.148;8.204;2023-02-26T16:14:09;102677.44;;;10.30;50.25
49216;BME280;45943;53.148;8.204;2023-02-26T16:16:43;102676.81;;;10.25;53.30
49216;BME280;45943;53.148;8.204;2023-02-26T16:19:16;102673.56;;;10.00;52.61
49216;BME280;45943;53.148;8.204;2023-02-26T16:21:45;102680.56;;;9.85;54.22
49216;BME280;45943;53.148;8.204;2023-02-26T16:24:14;102681.63;;;9.81;55.43
49216;BME280;45943;53.148;8.204;2023-02-26T16:26:48;102687.44;;;9.72;55.17
49216;BME280;45943;53.148;8.204;2023-02-26T16:29:24;102693.19;;;9.64;55.95
49216;BME280;45943;53.148;8.204;2023-02-26T16:31:57;102695.53;;;9.70;66.05
49216;BME280;45943;53.148;8.204;2023-02-26T16:39:50;102693.53;;;9.75;58.12
49216;BME280;45943;53.148;8.204;2023-02-26T16:42:35;102706.06;;;9.75;58.44
49216;BME280;45943;53.148;8.204;2023-02-26T16:45:14;102698.97;;;9.74;60.44